Time;durP1;ratioP1;P1;durP2;ratioP2;P2;SDS_P1;SDS_P2;PMS_P1;PMS_P2;Temp;Humidity;BMP_temperature;BMP_pressure;BME280_temperature;BME280_humidity;BME280_pressure;Samples;Min_cycle;Max_cycle;Signal;HPM_P1;HPM_P2
2023/05/08 00:01:02;;;;;;;24.87;22.40;;;;;;;;;;5013207;28;20265;-87
2023/05/08 00:03:28;;;;;;;26.90;22.10;;;;;;;;;;5012891;28;20174;-86
2023/05/08 00:05:55;;;;;;;24.40;22.07;;;;;;;;;;5012892;28;20177;-87
2023/05/08 00:08:23;;;;;;;25.27;22.60;;;;;;;;;;5013010;28;20185;-86
2023/05/08 00:10:49;;;;;;;24.00;21.63;;;;;;;;;;5013037;28;20272;-87
2023/05/08 00:13:15;;;;;;;23.60;21.30;;;;;;;;;;5012549;28;20189;-86
2023/05/08 00:15:41;;;;;;;23.67;21.33;;;;;;;;;;5013225;28;20319;-87
2023/05/08 00:18:10;;;;;;;24.23;21.50;;;;;;;;;;5012720;28;20209;-87
2023/05/08 00:20:36;;;;;;;23.27;21.03;;;;;;;;;;5017841;28;20180;-87
2023/05/08 00:23:03;;;;;;;24.13;21.83;;;;;;;;;;5031969;28;20207;-86
2023/05/08 00:25:31;;;;;;;23.57;21.17;;;;;;;;;;5031924;28;20259;-86
2023/05/08 00:27:57;;;;;;;23.63;21.13;;;;;;;;;;5032230;28;20180;-87
2023/05/08 00:30:23;;;;;;;24.57;22.00;;;;;;;;;;5032197;28;20180;-86
2023/05/08 00:32:49;;;;;;;24.53;22.03;;;;;;;;;;4996692;28;20189;-87
2023/05/08 00:35:18;;;;;;;23.47;21.20;;;;;;;;;;5037052;28;20198;-87
2023/05/08 00:37:44;;;;;;;25.53;22.80;;;;;;;;;;5012798;28;20236;-87
2023/05/08 00:40:10;;;;;;;24.13;21.73;;;;;;;;;;5028866;28;20174;-87
2023/05/08 00:42:39;;;;;;;25.10;22.40;;;;;;;;;;5042536;28;20220;-87
2023/05/08 00:45:05;;;;;;;25.20;22.57;;;;;;;;;;5031891;28;20177;-87
2023/05/08 00:47:32;;;;;;;24.33;21.83;;;;;;;;;;5002957;28;20185;-87
2023/05/08 00:50:01;;;;;;;25.60;23.07;;;;;;;;;;5032380;28;20180;-87
2023/05/08 00:52:29;;;;;;;25.57;23.00;;;;;;;;;;5024670;28;20169;-87
2023/05/08 00:54:55;;;;;;;26.03;22.47;;;;;;;;;;5012603;28;20177;-87
2023/05/08 00:57:24;;;;;;;25.90;23.27;;;;;;;;;;5012564;28;20216;-86
2023/05/08 00:59:50;;;;;;;24.60;22.10;;;;;;;;;;5012898;28;20174;-87
2023/05/08 01:02:16;;;;;;;24.37;22.07;;;;;;;;;;5025353;28;20177;-87
2023/05/08 01:04:45;;;;;;;25.47;22.97;;;;;;;;;;5032020;28;20184;-87
2023/05/08 01:07:11;;;;;;;24.73;22.23;;;;;;;;;;5021500;28;20177;-87
2023/05/08 01:09:38;;;;;;;26.30;23.50;;;;;;;;;;5032193;28;20173;-86
2023/05/08 01:12:07;;;;;;;24.80;22.20;;;;;;;;;;5021282;28;20276;-87
2023/05/08 01:14:42;;;;;;;25.57;22.30;;;;;;;;;;5036770;28;20172;-86
2023/05/08 01:17:14;;;;;;;24.47;22.07;;;;;;;;;;5031217;28;20210;-87
2023/05/08 01:19:43;;;;;;;25.33;22.93;;;;;;;;;;5033786;28;20185;-86
2023/05/08 01:22:17;;;;;;;24.63;22.13;;;;;;;;;;5034439;28;20234;-86
2023/05/08 01:25:11;;;;;;;25.70;23.07;;;;;;;;;;5025409;28;20263;-87
2023/05/08 01:27:46;;;;;;;24.80;22.37;;;;;;;;;;5015672;28;20188;-86
2023/05/08 01:30:31;;;;;;;25.00;22.37;;;;;;;;;;5024661;28;20204;-87
2023/05/08 01:33:02;;;;;;;25.33;22.70;;;;;;;;;;5035633;28;20185;-86
2023/05/08 01:35:43;;;;;;;26.03;23.27;;;;;;;;;;5035650;28;20188;-87
2023/05/08 01:38:19;;;;;;;26.00;23.40;;;;;;;;;;5035055;28;20216;-86
2023/05/08 01:40:56;;;;;;;25.47;22.97;;;;;;;;;;5036446;28;20172;-87
2023/05/08 01:43:30;;;;;;;27.33;23.03;;;;;;;;;;5038331;28;20323;-86
2023/05/08 01:46:02;;;;;;;25.93;23.10;;;;;;;;;;5038587;28;20195;-87
2023/05/08 01:48:35;;;;;;;25.67;23.17;;;;;;;;;;5038417;28;20172;-88
2023/05/08 01:51:10;;;;;;;26.17;23.60;;;;;;;;;;5038608;28;20180;-87
2023/05/08 01:53:38;;;;;;;26.93;24.30;;;;;;;;;;5038682;28;20232;-87
2023/05/08 01:56:07;;;;;;;25.80;23.30;;;;;;;;;;5038278;28;20188;-87
2023/05/08 01:58:34;;;;;;;25.87;23.13;;;;;;;;;;5038432;28;20214;-86
2023/05/08 02:01:01;;;;;;;27.30;24.37;;;;;;;;;;5037580;28;20266;-87
2023/05/08 02:03:31;;;;;;;27.13;24.57;;;;;;;;;;5036061;28;20180;-86
2023/05/08 02:05:58;;;;;;;27.37;24.47;;;;;;;;;;5038014;28;20172;-87
2023/05/08 02:08:25;;;;;;;28.13;25.13;;;;;;;;;;5038112;28;20188;-87
2023/05/08 02:10:55;;;;;;;26.77;23.97;;;;;;;;;;5037897;28;20353;-86
2023/05/08 02:13:22;;;;;;;27.13;23.93;;;;;;;;;;5037963;28;20183;-87
2023/05/08 02:15:51;;;;;;;27.60;24.90;;;;;;;;;;5037946;28;20179;-87
2023/05/08 02:18:21;;;;;;;27.13;24.43;;;;;;;;;;5037588;28;20333;-87
2023/05/08 02:20:51;;;;;;;28.27;25.13;;;;;;;;;;5037079;28;20179;-86
2023/05/08 02:23:18;;;;;;;26.73;23.97;;;;;;;;;;5037581;28;20200;-87
2023/05/08 02:25:49;;;;;;;30.67;25.97;;;;;;;;;;5038000;28;20176;-87
2023/05/08 02:28:16;;;;;;;29.80;26.47;;;;;;;;;;5037693;28;20226;-87
2023/05/08 02:30:43;;;;;;;27.83;24.60;;;;;;;;;;5037812;28;20183;-87
2023/05/08 02:33:11;;;;;;;28.70;25.73;;;;;;;;;;5037685;28;20211;-86
2023/05/08 02:35:38;;;;;;;31.63;26.93;;;;;;;;;;5037774;28;20194;-86
2023/05/08 02:38:09;;;;;;;28.83;25.53;;;;;;;;;;5037567;28;20208;-87
2023/05/08 02:40:36;;;;;;;27.33;24.40;;;;;;;;;;5037771;28;20250;-86
2023/05/08 02:43:02;;;;;;;27.77;25.07;;;;;;;;;;5020947;28;20250;-86
2023/05/08 02:45:31;;;;;;;29.10;26.07;;;;;;;;;;5037739;28;20206;-87
2023/05/08 02:48:00;;;;;;;29.33;26.13;;;;;;;;;;5037288;28;20223;-86
2023/05/08 02:50:35;;;;;;;28.57;25.77;;;;;;;;;;5037561;28;20176;-87
2023/05/08 02:53:08;;;;;;;28.70;25.97;;;;;;;;;;5037290;28;20179;-86
2023/05/08 02:55:35;;;;;;;29.90;26.73;;;;;;;;;;5037034;28;20179;-87
2023/05/08 02:58:20;;;;;;;29.37;26.20;;;;;;;;;;5036987;28;20216;-86
2023/05/08 03:01:06;;;;;;;29.37;26.27;;;;;;;;;;5037179;28;20180;-86
2023/05/08 03:03:40;;;;;;;29.57;26.50;;;;;;;;;;5036893;28;20203;-86
2023/05/08 03:06:09;;;;;;;29.53;26.53;;;;;;;;;;5036637;28;20206;-86
2023/05/08 03:08:39;;;;;;;30.13;27.00;;;;;;;;;;5037036;28;20172;-86
2023/05/08 03:11:08;;;;;;;31.10;27.73;;;;;;;;;;5036803;28;20187;-87
2023/05/08 03:13:37;;;;;;;31.13;28.07;;;;;;;;;;5036626;28;20176;-86
2023/05/08 03:16:05;;;;;;;30.70;27.47;;;;;;;;;;5036263;28;20176;-87
2023/05/08 03:18:52;;;;;;;31.13;28.13;;;;;;;;;;5036283;28;20273;-86
2023/05/08 03:21:23;;;;;;;30.70;27.37;;;;;;;;;;5036465;28;20175;-87
2023/05/08 03:23:51;;;;;;;30.77;27.17;;;;;;;;;;5028835;28;20196;-86
2023/05/08 03:26:22;;;;;;;29.60;26.73;;;;;;;;;;5036159;28;20206;-87
2023/05/08 03:28:49;;;;;;;30.63;27.63;;;;;;;;;;5036154;28;20222;-87
2023/05/08 03:31:19;;;;;;;31.20;28.23;;;;;;;;;;5036017;28;20184;-86
2023/05/08 03:33:46;;;;;;;30.63;27.63;;;;;;;;;;5036195;28;20183;-87
2023/05/08 03:36:13;;;;;;;30.80;27.43;;;;;;;;;;5036614;28;20179;-87
2023/05/08 03:38:39;;;;;;;30.93;27.97;;;;;;;;;;5036373;28;20204;-87
2023/05/08 03:41:07;;;;;;;31.53;28.00;;;;;;;;;;5036175;28;20225;-87
2023/05/08 03:43:35;;;;;;;30.70;27.60;;;;;;;;;;5035738;28;20172;-87
2023/05/08 03:46:04;;;;;;;31.13;28.03;;;;;;;;;;5036209;28;20180;-86
2023/05/08 03:48:32;;;;;;;31.40;28.00;;;;;;;;;;5035830;28;20316;-86
2023/05/08 03:51:03;;;;;;;32.53;29.10;;;;;;;;;;5036133;28;20179;-87
2023/05/08 03:53:29;;;;;;;31.00;27.90;;;;;;;;;;5036291;28;20188;-86
2023/05/08 03:55:57;;;;;;;32.83;29.57;;;;;;;;;;5036177;28;20184;-87
2023/05/08 03:58:31;;;;;;;31.27;28.13;;;;;;;;;;5036376;28;20215;-86
2023/05/08 04:01:07;;;;;;;30.47;27.47;;;;;;;;;;5036257;28;20175;-87
2023/05/08 04:03:43;;;;;;;31.07;28.07;;;;;;;;;;5036147;28;20171;-86
2023/05/08 04:06:25;;;;;;;32.17;29.07;;;;;;;;;;5036053;28;20176;-86
2023/05/08 04:09:18;;;;;;;30.97;27.70;;;;;;;;;;5036126;28;20179;-86
2023/05/08 04:11:54;;;;;;;32.07;28.87;;;;;;;;;;5033303;28;20215;-87
2023/05/08 04:14:22;;;;;;;31.73;28.60;;;;;;;;;;5035883;28;20187;-86
2023/05/08 04:16:50;;;;;;;31.70;28.57;;;;;;;;;;5034569;28;20203;-86
2023/05/08 04:19:26;;;;;;;32.17;28.87;;;;;;;;;;5034633;28;20306;-86
2023/05/08 04:21:54;;;;;;;32.33;29.23;;;;;;;;;;5034776;28;20264;-86
2023/05/08 04:24:22;;;;;;;31.73;28.60;;;;;;;;;;5034173;28;20195;-87
2023/05/08 04:26:48;;;;;;;31.57;28.47;;;;;;;;;;5044308;28;20204;-86
2023/05/08 04:29:14;;;;;;;31.33;28.33;;;;;;;;;;5035161;28;20207;-87
2023/05/08 04:31:41;;;;;;;31.93;28.87;;;;;;;;;;5041766;28;20184;-87
2023/05/08 04:34:08;;;;;;;31.87;28.90;;;;;;;;;;5030812;28;20195;-86
2023/05/08 04:36:35;;;;;;;32.37;29.10;;;;;;;;;;5035829;28;20193;-87
2023/05/08 04:39:03;;;;;;;32.53;29.33;;;;;;;;;;5035111;28;20246;-87
2023/05/08 04:41:29;;;;;;;32.70;29.37;;;;;;;;;;5035772;28;20223;-85
2023/05/08 04:43:56;;;;;;;29.80;27.13;;;;;;;;;;5020921;28;20404;-86
2023/05/08 04:46:23;;;;;;;30.73;27.73;;;;;;;;;;5039663;28;20183;-85
2023/05/08 04:48:49;;;;;;;31.57;28.57;;;;;;;;;;5038813;28;20180;-86
2023/05/08 04:51:15;;;;;;;30.23;27.43;;;;;;;;;;5039426;28;20187;-86
2023/05/08 04:53:41;;;;;;;31.50;28.43;;;;;;;;;;5022485;28;20180;-86
2023/05/08 04:56:08;;;;;;;32.03;28.93;;;;;;;;;;5038725;28;20230;-87
2023/05/08 04:58:36;;;;;;;30.80;27.80;;;;;;;;;;5038910;28;20207;-87
2023/05/08 05:01:03;;;;;;;33.60;30.40;;;;;;;;;;5039251;28;20233;-86
2023/05/08 05:03:29;;;;;;;32.10;28.97;;;;;;;;;;5022824;28;20176;-86
2023/05/08 05:05:59;;;;;;;31.57;28.63;;;;;;;;;;5022635;28;20177;-86
2023/05/08 05:08:25;;;;;;;32.50;29.30;;;;;;;;;;5038554;28;20239;-87
2023/05/08 05:10:52;;;;;;;31.77;28.67;;;;;;;;;;5022534;28;20200;-88
2023/05/08 05:13:20;;;;;;;32.80;29.23;;;;;;;;;;5038816;28;20186;-87
2023/05/08 05:15:46;;;;;;;33.43;30.13;;;;;;;;;;5038577;28;20194;-86
2023/05/08 05:18:12;;;;;;;33.53;30.20;;;;;;;;;;5038832;28;20204;-86
2023/05/08 05:20:41;;;;;;;32.80;29.80;;;;;;;;;;5023026;28;20176;-86
2023/05/08 05:23:07;;;;;;;32.40;29.27;;;;;;;;;;5020153;28;20219;-88
2023/05/08 05:25:34;;;;;;;33.20;30.00;;;;;;;;;;5038198;28;20188;-87
2023/05/08 05:28:02;;;;;;;32.50;29.60;;;;;;;;;;5038676;28;20183;-86
2023/05/08 05:30:28;;;;;;;32.40;29.30;;;;;;;;;;5038282;28;20180;-87
2023/05/08 05:32:57;;;;;;;33.90;30.40;;;;;;;;;;5038748;28;20191;-87
2023/05/08 05:35:26;;;;;;;31.77;28.90;;;;;;;;;;5038824;28;20276;-87
2023/05/08 05:37:52;;;;;;;32.67;29.43;;;;;;;;;;5038191;28;20218;-87
2023/05/08 05:40:19;;;;;;;33.07;29.70;;;;;;;;;;5038287;28;20208;-87
2023/05/08 05:42:48;;;;;;;32.20;29.13;;;;;;;;;;5035248;28;20213;-87
2023/05/08 05:45:14;;;;;;;30.40;27.80;;;;;;;;;;5035037;28;20177;-87
2023/05/08 05:47:48;;;;;;;31.07;28.17;;;;;;;;;;5035189;28;20240;-87
2023/05/08 05:50:14;;;;;;;30.07;27.33;;;;;;;;;;5034525;28;20235;-87
2023/05/08 05:52:40;;;;;;;30.57;27.50;;;;;;;;;;5034549;28;20185;-87
2023/05/08 05:55:09;;;;;;;30.20;27.40;;;;;;;;;;5034487;28;20219;-87
2023/05/08 05:57:35;;;;;;;30.80;28.00;;;;;;;;;;5035059;28;20212;-88
2023/05/08 06:00:03;;;;;;;30.47;27.67;;;;;;;;;;5033714;28;20204;-87
2023/05/08 06:02:34;;;;;;;30.07;27.37;;;;;;;;;;5029935;28;20176;-86
2023/05/08 06:05:01;;;;;;;30.40;27.63;;;;;;;;;;5034393;28;20184;-87
2023/05/08 06:07:29;;;;;;;29.27;26.77;;;;;;;;;;5034292;28;20185;-86
2023/05/08 06:09:55;;;;;;;29.63;27.03;;;;;;;;;;5034604;28;20225;-87
2023/05/08 06:12:22;;;;;;;29.40;26.80;;;;;;;;;;5033016;28;20185;-88
2023/05/08 06:14:55;;;;;;;29.63;26.80;;;;;;;;;;5034759;28;20183;-87
2023/05/08 06:17:21;;;;;;;29.87;27.30;;;;;;;;;;5034300;28;20180;-87
2023/05/08 06:19:52;;;;;;;29.43;26.63;;;;;;;;;;5034397;28;20168;-88
2023/05/08 06:22:22;;;;;;;29.40;26.80;;;;;;;;;;5034527;28;20175;-87
2023/05/08 06:24:54;;;;;;;29.63;27.07;;;;;;;;;;5034374;28;20172;-87
2023/05/08 06:27:21;;;;;;;30.70;27.80;;;;;;;;;;5034148;28;20200;-88
2023/05/08 06:29:50;;;;;;;31.10;28.30;;;;;;;;;;5034285;28;20177;-87
2023/05/08 06:32:17;;;;;;;29.17;26.47;;;;;;;;;;5034356;28;20180;-88
2023/05/08 06:34:43;;;;;;;29.13;26.57;;;;;;;;;;5034319;28;20168;-87
2023/05/08 06:37:12;;;;;;;29.60;26.83;;;;;;;;;;5034317;28;20264;-87
2023/05/08 06:39:38;;;;;;;30.43;27.60;;;;;;;;;;5034043;28;20179;-87
2023/05/08 06:42:05;;;;;;;30.10;27.47;;;;;;;;;;5033966;28;20287;-88
2023/05/08 06:44:34;;;;;;;30.50;27.57;;;;;;;;;;5034182;28;20180;-86
2023/05/08 06:47:00;;;;;;;31.37;28.50;;;;;;;;;;5033931;28;20192;-88
2023/05/08 06:49:26;;;;;;;31.47;28.57;;;;;;;;;;5034155;28;20184;-86
2023/05/08 06:51:55;;;;;;;30.60;27.77;;;;;;;;;;5033860;28;20188;-86
2023/05/08 06:54:21;;;;;;;31.23;28.33;;;;;;;;;;5034010;28;20204;-87
2023/05/08 06:56:47;;;;;;;30.03;27.43;;;;;;;;;;5032996;28;20192;-88
2023/05/08 06:59:13;;;;;;;31.03;27.83;;;;;;;;;;5021538;28;20208;-87
2023/05/08 07:01:49;;;;;;;40.13;34.60;;;;;;;;;;5017084;28;20176;-86
2023/05/08 07:04:17;;;;;;;41.57;34.47;;;;;;;;;;5014748;28;20176;-88
2023/05/08 07:06:43;;;;;;;44.43;35.50;;;;;;;;;;5016542;28;20178;-86
2023/05/08 07:09:10;;;;;;;43.57;35.50;;;;;;;;;;5000941;28;20180;-87
2023/05/08 07:11:38;;;;;;;45.37;35.80;;;;;;;;;;5016869;28;20180;-86
2023/05/08 07:14:04;;;;;;;42.00;35.47;;;;;;;;;;5016921;28;20184;-86
2023/05/08 07:16:30;;;;;;;44.47;36.53;;;;;;;;;;5030490;28;20210;-86
2023/05/08 07:18:56;;;;;;;49.07;37.87;;;;;;;;;;5016737;28;20204;-86
2023/05/08 07:21:25;;;;;;;45.60;36.03;;;;;;;;;;5015771;28;20189;-86
2023/05/08 07:23:52;;;;;;;45.97;37.90;;;;;;;;;;5015989;28;20197;-88
2023/05/08 07:26:18;;;;;;;47.33;37.33;;;;;;;;;;5026092;28;20181;-88
2023/05/08 07:28:47;;;;;;;45.63;37.00;;;;;;;;;;5000644;28;20238;-87
2023/05/08 07:31:15;;;;;;;46.67;38.63;;;;;;;;;;5017312;28;20172;-88
2023/05/08 07:33:45;;;;;;;44.80;36.43;;;;;;;;;;5016890;28;20181;-87
2023/05/08 07:36:11;;;;;;;45.20;37.40;;;;;;;;;;5030940;28;20181;-87
2023/05/08 07:38:38;;;;;;;49.57;38.70;;;;;;;;;;5016479;28;20212;-87
2023/05/08 07:41:07;;;;;;;45.20;37.37;;;;;;;;;;5020115;28;20318;-87
2023/05/08 07:43:33;;;;;;;45.83;38.30;;;;;;;;;;5036398;28;20188;-88
2023/05/08 07:45:59;;;;;;;46.20;36.60;;;;;;;;;;5036578;28;20183;-87
2023/05/08 07:48:25;;;;;;;42.47;36.97;;;;;;;;;;5036380;28;20180;-87
2023/05/08 07:50:54;;;;;;;47.00;39.17;;;;;;;;;;5036251;28;20196;-86
2023/05/08 07:53:20;;;;;;;47.90;39.93;;;;;;;;;;5036231;28;20266;-86
2023/05/08 07:56:06;;;;;;;46.90;39.13;;;;;;;;;;5041088;28;20179;-90
2023/05/08 07:58:32;;;;;;;46.30;39.90;;;;;;;;;;5051338;28;20214;-86
2023/05/08 08:01:02;;;;;;;43.73;39.03;;;;;;;;;;5051714;28;20176;-90
2023/05/08 08:03:28;;;;;;;47.87;40.23;;;;;;;;;;5053420;28;20179;-88
2023/05/08 08:05:54;;;;;;;46.88;41.03;;;;;;;;;;5054053;28;20407;-87
2023/05/08 08:08:20;;;;;;;47.13;39.77;;;;;;;;;;5054324;28;20186;-88
2023/05/08 08:10:49;;;;;;;48.03;40.63;;;;;;;;;;5054614;28;20171;-87
2023/05/08 08:13:16;;;;;;;50.67;44.75;;;;;;;;;;5044403;28;20422;-89
2023/05/08 08:15:42;;;;;;;48.23;41.07;;;;;;;;;;5053959;28;20178;-86
2023/05/08 08:18:11;;;;;;;50.50;41.37;;;;;;;;;;5044997;28;20212;-89
2023/05/08 08:20:38;;;;;;;50.33;43.28;;;;;;;;;;5050101;28;20400;-88
2023/05/08 08:23:04;;;;;;;51.92;45.13;;;;;;;;;;5052855;28;20444;-89
2023/05/08 08:25:33;;;;;;;50.53;45.13;;;;;;;;;;5049006;28;20412;-87
2023/05/08 08:27:59;;;;;;;47.55;42.22;;;;;;;;;;5035664;28;20416;-88
2023/05/08 08:30:25;;;;;;;48.88;43.67;;;;;;;;;;5035188;28;20420;-89
2023/05/08 08:32:53;;;;;;;47.65;42.63;;;;;;;;;;5035110;28;20415;-88
2023/05/08 08:35:19;;;;;;;48.67;43.50;;;;;;;;;;5034643;28;20443;-88
2023/05/08 08:37:45;;;;;;;47.40;42.47;;;;;;;;;;5018459;28;20428;-89
2023/05/08 08:40:12;;;;;;;47.57;42.77;;;;;;;;;;5034736;28;20412;-88
2023/05/08 08:42:41;;;;;;;49.20;44.00;;;;;;;;;;5034781;28;20428;-87
2023/05/08 08:45:07;;;;;;;49.10;43.80;;;;;;;;;;5034886;28;20537;-87
2023/05/08 08:47:43;;;;;;;47.58;42.30;;;;;;;;;;5034490;28;20495;-87
2023/05/08 08:50:10;;;;;;;49.03;43.50;;;;;;;;;;5035127;28;20454;-86
2023/05/08 08:52:41;;;;;;;47.50;42.58;;;;;;;;;;5034942;28;20400;-87
2023/05/08 08:55:12;;;;;;;44.90;40.10;;;;;;;;;;5034917;28;20404;-87
2023/05/08 08:57:42;;;;;;;46.78;41.85;;;;;;;;;;5034159;28;20435;-89
2023/05/08 09:00:11;;;;;;;43.97;38.90;;;;;;;;;;5046320;28;20203;-87
2023/05/08 09:02:38;;;;;;;46.50;39.10;;;;;;;;;;5047705;28;20183;-87
2023/05/08 09:05:05;;;;;;;47.83;40.27;;;;;;;;;;5050934;28;20178;-89
2023/05/08 09:07:34;;;;;;;48.05;42.80;;;;;;;;;;5051620;28;20394;-89
2023/05/08 09:10:06;;;;;;;45.60;40.67;;;;;;;;;;5051565;28;20414;-91
2023/05/08 09:12:32;;;;;;;45.83;41.10;;;;;;;;;;5049701;28;20398;-88
2023/05/08 09:14:58;;;;;;;48.55;43.33;;;;;;;;;;5054051;28;20497;-89
2023/05/08 09:17:24;;;;;;;44.85;39.80;;;;;;;;;;5054045;28;20453;-88
2023/05/08 09:19:51;;;;;;;47.38;42.28;;;;;;;;;;5037782;28;20414;-89
2023/05/08 09:22:23;;;;;;;46.60;41.73;;;;;;;;;;5054085;28;20395;-89
2023/05/08 09:24:56;;;;;;;46.08;41.40;;;;;;;;;;5053490;28;20486;-88
2023/05/08 09:27:23;;;;;;;49.47;44.17;;;;;;;;;;5049197;28;20394;-88
2023/05/08 09:30:08;;;;;;;48.10;42.42;;;;;;;;;;5056367;28;20426;-87
2023/05/08 09:32:45;;;;;;;47.13;42.22;;;;;;;;;;5058115;28;20394;-87
2023/05/08 09:35:14;;;;;;;48.77;40.17;;;;;;;;;;5058711;28;20183;-86
2023/05/08 09:37:45;;;;;;;46.90;40.30;;;;;;;;;;5058694;28;20207;-86
2023/05/08 09:40:21;;;;;;;49.20;44.07;;;;;;;;;;5058150;28;20406;-87
2023/05/08 09:46:12;;;;;;;48.63;43.80;;;;;;;;;;5076232;28;20409;-87
2023/05/08 09:48:38;;;;;;;51.38;45.88;;;;;;;;;;5057851;28;20406;-88
2023/05/08 09:51:10;;;;;;;49.35;44.03;;;;;;;;;;5040973;28;20446;-87
2023/05/08 09:53:36;;;;;;;50.47;45.05;;;;;;;;;;5035419;28;20463;-88
2023/05/08 09:56:28;;;;;;;49.03;44.00;;;;;;;;;;5037582;28;20455;-89
2023/05/08 09:58:56;;;;;;;50.85;45.45;;;;;;;;;;5037338;28;20530;-87
2023/05/08 10:01:32;;;;;;;52.27;46.77;;;;;;;;;;5038095;28;20461;-87
2023/05/08 10:03:59;;;;;;;51.92;46.50;;;;;;;;;;5021222;28;20504;-85
2023/05/08 10:06:27;;;;;;;55.00;49.25;;;;;;;;;;5037065;28;20403;-86
2023/05/08 10:09:13;;;;;;;54.92;49.13;;;;;;;;;;5036683;28;20442;-85
2023/05/08 10:11:54;;;;;;;56.33;50.33;;;;;;;;;;5032295;28;20459;-86
2023/05/08 10:14:23;;;;;;;55.17;49.55;;;;;;;;;;5037076;28;20408;-85
2023/05/08 10:16:54;;;;;;;53.22;47.90;;;;;;;;;;5036703;28;20408;-85
2023/05/08 10:19:21;;;;;;;51.97;46.72;;;;;;;;;;5036710;28;20503;-86
2023/05/08 10:21:49;;;;;;;53.10;47.78;;;;;;;;;;5036850;28;20428;-84
2023/05/08 10:24:19;;;;;;;54.17;48.78;;;;;;;;;;5036514;28;20407;-84
2023/05/08 10:27:08;;;;;;;54.17;48.87;;;;;;;;;;5035508;28;20400;-86
2023/05/08 10:29:43;;;;;;;54.58;49.25;;;;;;;;;;5035572;28;20423;-85
2023/05/08 10:32:13;;;;;;;50.65;45.65;;;;;;;;;;5036609;28;20412;-84
2023/05/08 10:34:41;;;;;;;53.10;47.80;;;;;;;;;;5036788;28;20399;-84
2023/05/08 10:37:16;;;;;;;52.13;46.92;;;;;;;;;;5035967;28;20424;-85
2023/05/08 10:39:46;;;;;;;49.92;44.92;;;;;;;;;;5036336;28;20459;-85
2023/05/08 10:42:13;;;;;;;45.28;40.63;;;;;;;;;;5035520;28;20467;-84
2023/05/08 10:44:40;;;;;;;45.92;41.33;;;;;;;;;;5036437;28;20412;-84
2023/05/08 10:47:29;;;;;;;47.22;42.63;;;;;;;;;;5036871;28;20397;-85
2023/05/08 10:50:08;;;;;;;47.45;43.05;;;;;;;;;;5036254;28;20415;-84
2023/05/08 10:52:36;;;;;;;49.45;44.80;;;;;;;;;;5036070;28;20407;-84
2023/05/08 10:55:12;;;;;;;52.22;47.22;;;;;;;;;;5036239;28;20400;-84
2023/05/08 10:57:38;;;;;;;47.40;42.83;;;;;;;;;;5036678;28;20447;-85
2023/05/08 11:00:06;;;;;;;47.17;42.60;;;;;;;;;;5037526;28;20180;-85
2023/05/08 11:02:35;;;;;;;54.20;49.13;;;;;;;;;;5036315;28;20400;-85
2023/05/08 11:05:17;;;;;;;52.05;46.95;;;;;;;;;;5036684;28;20410;-84
2023/05/08 11:07:56;;;;;;;52.10;47.20;;;;;;;;;;5036396;28;20408;-84
2023/05/08 11:10:29;;;;;;;52.65;47.70;;;;;;;;;;5035993;28;20400;-84
2023/05/08 11:12:56;;;;;;;51.20;46.45;;;;;;;;;;5036279;28;20457;-84
2023/05/08 11:15:35;;;;;;;51.67;46.90;;;;;;;;;;5036093;28;20442;-84
2023/05/08 11:18:03;;;;;;;55.03;50.13;;;;;;;;;;5035951;28;20506;-84
2023/05/08 11:20:42;;;;;;;57.17;51.88;;;;;;;;;;5036395;28;20495;-84
2023/05/08 11:23:24;;;;;;;57.03;51.72;;;;;;;;;;5035489;28;20400;-84
2023/05/08 11:26:01;;;;;;;48.45;44.25;;;;;;;;;;5035834;28;20427;-84
2023/05/08 11:28:27;;;;;;;47.53;43.47;;;;;;;;;;5036259;28;20410;-84
2023/05/08 11:30:57;;;;;;;46.78;42.58;;;;;;;;;;5019637;28;20430;-84
2023/05/08 11:33:29;;;;;;;48.90;44.60;;;;;;;;;;5035942;28;20404;-84
2023/05/08 11:35:55;;;;;;;50.58;46.10;;;;;;;;;;5036149;28;20419;-84
2023/05/08 11:38:25;;;;;;;51.20;46.80;;;;;;;;;;5037323;28;20511;-85
2023/05/08 11:40:57;;;;;;;49.20;44.17;;;;;;;;;;5039969;28;20168;-86
2023/05/08 11:43:32;;;;;;;50.33;45.60;;;;;;;;;;5040022;28;20198;-86
2023/05/08 11:46:04;;;;;;;48.87;44.37;;;;;;;;;;5040338;28;20198;-85
2023/05/08 11:48:34;;;;;;;54.50;48.80;;;;;;;;;;5039665;28;20191;-87
2023/05/08 11:51:00;;;;;;;54.60;48.90;;;;;;;;;;5039252;28;20188;-87
2023/05/08 11:53:27;;;;;;;52.20;47.20;;;;;;;;;;5036085;28;20234;-90
2023/05/08 11:55:53;;;;;;;54.27;48.77;;;;;;;;;;5036302;28;20194;-89
2023/05/08 11:58:20;;;;;;;55.93;50.43;;;;;;;;;;5036430;28;20207;-89
2023/05/08 12:00:47;;;;;;;56.07;50.50;;;;;;;;;;5019860;28;20179;-88
2023/05/08 12:03:17;;;;;;;53.73;48.57;;;;;;;;;;5036180;28;20180;-88
2023/05/08 12:05:43;;;;;;;56.93;51.20;;;;;;;;;;5035915;28;20176;-89
2023/05/08 12:08:12;;;;;;;58.43;52.70;;;;;;;;;;5036092;28;20179;-87
2023/05/08 12:10:41;;;;;;;58.70;52.80;;;;;;;;;;5036225;28;20172;-89
2023/05/08 12:13:19;;;;;;;56.33;50.83;;;;;;;;;;5036189;28;20184;-87
2023/05/08 12:15:46;;;;;;;58.33;52.93;;;;;;;;;;5035875;28;20243;-88
2023/05/08 12:18:12;;;;;;;61.17;55.78;;;;;;;;;;5034898;28;20428;-93
2023/05/08 12:20:41;;;;;;;55.97;50.97;;;;;;;;;;5035300;28;20183;-91
2023/05/08 12:23:10;;;;;;;59.60;54.10;;;;;;;;;;5035859;28;20199;-88
2023/05/08 12:25:39;;;;;;;57.87;52.43;;;;;;;;;;5035945;28;20172;-88
2023/05/08 12:28:09;;;;;;;55.37;50.17;;;;;;;;;;5036123;28;20176;-88
2023/05/08 12:33:21;;;;;;;58.57;52.83;;;;;;;;;;5050807;28;20183;-87
2023/05/08 12:35:47;;;;;;;56.07;50.90;;;;;;;;;;5036003;28;20184;-88
2023/05/08 12:38:13;;;;;;;59.27;53.63;;;;;;;;;;5035630;28;20203;-88
2023/05/08 12:40:43;;;;;;;57.67;52.07;;;;;;;;;;5035672;28;20176;-88
2023/05/08 12:43:10;;;;;;;56.53;51.30;;;;;;;;;;5035345;28;20286;-88
2023/05/08 12:45:42;;;;;;;61.07;55.23;;;;;;;;;;5035671;28;20195;-87
2023/05/08 12:48:09;;;;;;;60.33;54.47;;;;;;;;;;5035610;28;20184;-88
2023/05/08 12:50:39;;;;;;;61.57;55.70;;;;;;;;;;5036137;28;20182;-87
2023/05/08 12:53:26;;;;;;;60.93;55.17;;;;;;;;;;5035740;28;20271;-88
2023/05/08 12:55:56;;;;;;;60.13;54.33;;;;;;;;;;5035620;28;20183;-88
2023/05/08 12:58:29;;;;;;;58.87;53.40;;;;;;;;;;5035700;28;20222;-87
2023/05/08 13:01:06;;;;;;;59.93;54.23;;;;;;;;;;5035530;28;20267;-87
2023/05/08 13:03:35;;;;;;;60.97;55.30;;;;;;;;;;5019566;28;20216;-89
2023/05/08 13:06:05;;;;;;;59.10;53.77;;;;;;;;;;5039165;28;20191;-88
2023/05/08 13:08:33;;;;;;;61.63;55.73;;;;;;;;;;5039681;28;20245;-88
2023/05/08 13:11:00;;;;;;;60.47;54.93;;;;;;;;;;5039064;28;20190;-87
2023/05/08 13:13:27;;;;;;;59.63;54.13;;;;;;;;;;5039132;28;20188;-89
2023/05/08 13:15:56;;;;;;;58.07;52.57;;;;;;;;;;5039033;28;20222;-88
2023/05/08 13:18:26;;;;;;;58.30;53.00;;;;;;;;;;5039016;28;20253;-88
2023/05/08 13:20:55;;;;;;;59.30;53.83;;;;;;;;;;5039041;28;20176;-88
2023/05/08 13:23:21;;;;;;;58.27;52.70;;;;;;;;;;5039117;28;20219;-88
2023/05/08 13:25:48;;;;;;;56.60;51.37;;;;;;;;;;5022913;28;20179;-87
2023/05/08 13:28:17;;;;;;;60.03;54.33;;;;;;;;;;5038949;28;20215;-88
2023/05/08 13:30:43;;;;;;;53.67;48.77;;;;;;;;;;5022629;28;20234;-87
2023/05/08 13:33:09;;;;;;;56.27;51.17;;;;;;;;;;5039019;28;20176;-87
2023/05/08 13:35:38;;;;;;;56.50;51.17;;;;;;;;;;5022524;28;20245;-88
2023/05/08 13:38:04;;;;;;;54.33;49.33;;;;;;;;;;5038677;28;20214;-89
2023/05/08 13:40:31;;;;;;;58.60;53.03;;;;;;;;;;5022077;28;20235;-87
2023/05/08 13:42:57;;;;;;;56.20;51.10;;;;;;;;;;5038249;28;20287;-87
2023/05/08 13:45:25;;;;;;;56.90;51.73;;;;;;;;;;5038440;28;20176;-87
2023/05/08 13:47:51;;;;;;;53.77;48.83;;;;;;;;;;5038500;28;20191;-87
2023/05/08 13:50:20;;;;;;;56.40;51.20;;;;;;;;;;5038390;28;20176;-87
2023/05/08 13:52:46;;;;;;;55.43;50.30;;;;;;;;;;5038365;28;20318;-87
2023/05/08 13:55:13;;;;;;;53.93;49.13;;;;;;;;;;5038492;28;20184;-87
2023/05/08 13:57:39;;;;;;;53.23;48.23;;;;;;;;;;5038051;28;20180;-88
2023/05/08 14:00:10;;;;;;;53.97;49.00;;;;;;;;;;5038279;28;20164;-87
2023/05/08 14:02:36;;;;;;;55.90;50.60;;;;;;;;;;5038145;28;20168;-88
2023/05/08 14:05:09;;;;;;;53.63;48.73;;;;;;;;;;5038376;28;20176;-87
2023/05/08 14:07:35;;;;;;;51.97;47.10;;;;;;;;;;5038060;28;20191;-88
2023/05/08 14:10:01;;;;;;;52.53;47.63;;;;;;;;;;5037840;28;20179;-87
2023/05/08 14:12:34;;;;;;;50.80;46.17;;;;;;;;;;5037410;28;20176;-87
2023/05/08 14:15:00;;;;;;;52.08;47.15;;;;;;;;;;5037190;28;20179;-87
2023/05/08 14:17:29;;;;;;;51.72;47.03;;;;;;;;;;5020310;28;20176;-87
2023/05/08 14:19:55;;;;;;;52.15;47.35;;;;;;;;;;5037914;28;20186;-87
2023/05/08 14:22:21;;;;;;;52.53;47.63;;;;;;;;;;5037894;28;20239;-86
2023/05/08 14:24:49;;;;;;;50.58;46.03;;;;;;;;;;5037730;28;20180;-87
2023/05/08 14:27:16;;;;;;;46.42;41.95;;;;;;;;;;5037639;28;20174;-87
2023/05/08 14:29:42;;;;;;;48.20;43.83;;;;;;;;;;5037560;28;20188;-87
2023/05/08 14:32:09;;;;;;;45.78;41.58;;;;;;;;;;5037194;28;20186;-87
2023/05/08 14:34:35;;;;;;;45.78;41.50;;;;;;;;;;5037339;28;20176;-87